Time;durP1;ratioP1;P1;durP2;ratioP2;P2;SDS_P1;SDS_P2;PMS_P1;PMS_P2;Temp;Humidity;BMP_temperature;BMP_pressure;BME280_temperature;BME280_humidity;BME280_pressure;Samples;Min_cycle;Max_cycle;Signal;HPM_P1;HPM_P2
2022/08/08 00:00:12;;;;;;;0.38;0.38;;;12.80;99.90;;;;;;5051920;28;20041;-75
2022/08/08 00:03:06;;;;;;;0.38;0.38;;;12.80;99.90;;;;;;5047425;28;20403;-79
2022/08/08 00:05:53;;;;;;;0.30;0.30;;;12.70;99.90;;;;;;5045108;28;20060;-76
2022/08/08 00:08:31;;;;;;;0.20;0.20;;;12.70;99.90;;;;;;5051098;28;20049;-79
2022/08/08 00:11:14;;;;;;;0.30;0.30;;;12.70;99.90;;;;;;5054925;28;20044;-78
2022/08/08 00:13:52;;;;;;;0.30;0.30;;;12.80;99.90;;;;;;5046937;28;20047;-77
2022/08/08 00:16:31;;;;;;;0.30;0.30;;;12.70;99.90;;;;;;5049325;28;20133;-76
2022/08/08 00:19:09;;;;;;;0.40;0.40;;;12.60;99.90;;;;;;5055315;28;20044;-77
2022/08/08 00:21:41;;;;;;;0.20;0.20;;;12.60;99.90;;;;;;5061073;28;20037;-76
2022/08/08 00:24:15;;;;;;;0.30;0.30;;;12.60;99.90;;;;;;5036246;28;20059;-76
2022/08/08 00:26:49;;;;;;;0.30;0.30;;;12.70;99.90;;;;;;5056760;28;20041;-77
2022/08/08 00:29:33;;;;;;;0.38;0.38;;;12.50;99.90;;;;;;5060126;28;20095;-79
2022/08/08 00:32:12;;;;;;;0.32;0.32;;;12.60;99.90;;;;;;5057767;28;20060;-79
2022/08/08 00:37:54;;;;;;;0.30;0.30;;;12.60;99.90;;;;;;5047812;28;20505;-80
2022/08/08 00:41:05;;;;;;;0.30;0.30;;;12.50;99.90;;;;;;5033843;28;20094;-78
2022/08/08 00:43:44;;;;;;;0.22;0.22;;;12.60;99.90;;;;;;4955316;28;20077;-78
2022/08/08 00:46:33;;;;;;;0.38;0.38;;;12.60;99.90;;;;;;5038668;28;20055;-78
2022/08/08 00:49:34;;;;;;;0.40;0.40;;;12.70;99.90;;;;;;5049240;28;20051;-77
2022/08/08 00:52:35;;;;;;;0.30;0.30;;;12.70;99.90;;;;;;5059775;28;20175;-80
2022/08/08 00:55:19;;;;;;;0.30;0.30;;;12.50;99.90;;;;;;5005221;28;20064;-77
2022/08/08 00:58:23;;;;;;;0.30;0.30;;;12.90;99.90;;;;;;5076143;28;20048;-76
2022/08/08 01:00:54;;;;;;;0.28;0.28;;;12.60;99.90;;;;;;5069996;28;20044;-74
2022/08/08 01:03:37;;;;;;;0.30;0.30;;;12.60;99.90;;;;;;5057793;28;20494;-78
2022/08/08 01:06:22;;;;;;;0.40;0.40;;;12.60;99.90;;;;;;5053167;28;20110;-79
2022/08/08 01:09:09;;;;;;;0.38;0.38;;;12.70;99.90;;;;;;5043826;28;20048;-76
2022/08/08 01:11:47;;;;;;;0.30;0.30;;;12.60;99.90;;;;;;5064859;28;20049;-77
2022/08/08 01:14:28;;;;;;;0.40;0.40;;;12.60;99.90;;;;;;5073892;28;20052;-77
2022/08/08 01:17:19;;;;;;;0.30;0.30;;;12.70;99.90;;;;;;5050495;28;20069;-75
2022/08/08 01:20:22;;;;;;;0.30;0.30;;;12.50;99.90;;;;;;5055630;28;20033;-78
2022/08/08 01:23:17;;;;;;;0.40;0.40;;;12.30;99.90;;;;;;5047736;28;20079;-77
2022/08/08 01:26:18;;;;;;;0.30;0.30;;;12.50;99.90;;;;;;5054980;28;20177;-79
2022/08/08 01:29:11;;;;;;;0.40;0.40;;;12.40;99.90;;;;;;5050153;28;20041;-77
2022/08/08 01:31:55;;;;;;;0.50;0.50;;;12.50;99.90;;;;;;5050350;28;20110;-75
2022/08/08 01:34:54;;;;;;;0.35;0.35;;;12.50;99.90;;;;;;5049049;28;20056;-79
2022/08/08 01:37:41;;;;;;;0.38;0.38;;;12.40;99.90;;;;;;5049257;28;20059;-76
2022/08/08 01:40:27;;;;;;;0.40;0.40;;;12.40;99.90;;;;;;5066491;28;20429;-79
2022/08/08 01:43:20;;;;;;;0.40;0.40;;;12.30;99.90;;;;;;5070333;28;20044;-77
2022/08/08 01:45:58;;;;;;;0.47;0.47;;;12.40;99.90;;;;;;5051762;28;20047;-76
2022/08/08 01:48:55;;;;;;;0.40;0.40;;;12.30;99.90;;;;;;5052820;28;20055;-76
2022/08/08 01:51:37;;;;;;;;;;;12.40;99.90;;;;;;5016140;28;20060;-79
2022/08/08 01:54:11;;;;;;;0.30;0.30;;;12.40;99.90;;;;;;5057994;28;19928;-75
2022/08/08 01:57:05;;;;;;;0.40;0.40;;;12.40;99.90;;;;;;5036803;28;20041;-77
2022/08/08 01:59:38;;;;;;;0.30;0.30;;;12.40;99.90;;;;;;5049943;28;20037;-76
2022/08/08 02:02:26;;;;;;;0.40;0.40;;;12.40;99.90;;;;;;5055245;28;20044;-77
2022/08/08 02:05:12;;;;;;;0.30;0.30;;;12.20;99.90;;;;;;5050967;28;20128;-77
2022/08/08 02:08:16;;;;;;;0.40;0.40;;;12.30;99.90;;;;;;5066220;28;20064;-76
2022/08/08 02:11:29;;;;;;;0.30;0.30;;;12.50;99.90;;;;;;5049523;28;20378;-77
2022/08/08 02:14:22;;;;;;;0.40;0.40;;;12.30;99.90;;;;;;4923149;29;20430;-81
2022/08/08 02:16:54;;;;;;;0.20;0.20;;;12.30;99.90;;;;;;5042396;28;20072;-76
2022/08/08 02:19:31;;;;;;;0.40;0.40;;;12.50;99.90;;;;;;5033290;28;20045;-80
2022/08/08 02:22:32;;;;;;;0.30;0.30;;;12.60;99.90;;;;;;5047338;28;20473;-79
2022/08/08 02:25:22;;;;;;;0.35;0.35;;;12.60;99.90;;;;;;5038290;28;20060;-75
2022/08/08 02:28:04;;;;;;;0.45;0.45;;;12.90;99.90;;;;;;5052654;28;20499;-77
2022/08/08 02:31:04;;;;;;;0.35;0.35;;;13.00;99.90;;;;;;5032613;28;20064;-77
2022/08/08 02:33:49;;;;;;;0.30;0.30;;;12.90;99.90;;;;;;5058060;28;20502;-78
2022/08/08 02:36:50;;;;;;;0.30;0.30;;;13.10;99.90;;;;;;5041754;28;20049;-77
2022/08/08 02:39:55;;;;;;;0.50;0.50;;;13.20;99.90;;;;;;5049785;28;20041;-80
2022/08/08 02:42:49;;;;;;;0.30;0.30;;;13.30;99.90;;;;;;5047803;28;20045;-75
2022/08/08 02:45:33;;;;;;;0.30;0.30;;;13.20;99.90;;;;;;5055325;28;20044;-78
2022/08/08 02:48:05;;;;;;;0.50;0.50;;;13.30;99.90;;;;;;5041868;28;20108;-76
2022/08/08 02:50:45;;;;;;;0.40;0.40;;;13.40;99.90;;;;;;5058229;28;20052;-77
2022/08/08 02:53:17;;;;;;;0.40;0.40;;;13.70;99.90;;;;;;5065785;28;20041;-75
2022/08/08 02:56:01;;;;;;;0.40;0.40;;;13.70;99.90;;;;;;5040776;28;20053;-78
2022/08/08 02:58:27;;;;;;;0.30;0.30;;;13.80;99.90;;;;;;5051891;28;20051;-80
2022/08/08 03:01:27;;;;;;;0.40;0.40;;;13.80;99.90;;;;;;5055539;28;20045;-78
2022/08/08 03:04:14;;;;;;;0.30;0.30;;;14.20;99.90;;;;;;5027187;28;20490;-77
2022/08/08 03:06:49;;;;;;;0.40;0.40;;;14.10;99.90;;;;;;5032238;28;20531;-75
2022/08/08 03:09:21;;;;;;;0.22;0.22;;;13.90;99.90;;;;;;5040150;28;20060;-76
2022/08/08 03:12:01;;;;;;;0.38;0.38;;;14.00;99.90;;;;;;5040862;28;20390;-79
2022/08/08 03:14:38;;;;;;;0.30;0.30;;;14.10;99.90;;;;;;5032205;28;20094;-80
2022/08/08 03:17:15;;;;;;;0.20;0.20;;;14.10;99.90;;;;;;5049248;28;20441;-74
2022/08/08 03:20:06;;;;;;;0.52;0.52;;;14.00;99.90;;;;;;5050846;28;20482;-80
2022/08/08 03:22:32;;;;;;;0.30;0.30;;;14.20;99.90;;;;;;5029458;28;20056;-80
2022/08/08 03:25:05;;;;;;;;;;;14.20;99.90;;;;;;5057911;28;20041;-76
2022/08/08 03:27:33;;;;;;;0.38;0.38;;;14.20;99.90;;;;;;5048834;28;19917;-75
2022/08/08 03:30:06;;;;;;;0.32;0.32;;;14.40;99.90;;;;;;5054773;28;20422;-79
2022/08/08 03:35:19;;;;;;;0.30;0.30;;;14.30;99.90;;;;;;5057450;28;20056;-77
2022/08/08 03:37:45;;;;;;;0.30;0.30;;;14.30;99.90;;;;;;5032945;28;20044;-77
2022/08/08 03:40:11;;;;;;;;;;;14.30;99.90;;;;;;5052617;28;20043;-75
2022/08/08 03:42:37;;;;;;;0.30;0.30;;;14.20;99.90;;;;;;5070404;28;20336;-76
2022/08/08 03:45:13;;;;;;;;;;;14.20;99.90;;;;;;5045411;28;20570;-77
2022/08/08 03:47:39;;;;;;;0.20;0.20;;;14.20;99.90;;;;;;5052028;28;19927;-79
2022/08/08 03:50:16;;;;;;;0.30;0.30;;;14.10;99.90;;;;;;5056916;28;20048;-76
2022/08/08 03:52:43;;;;;;;0.30;0.30;;;14.10;99.90;;;;;;5069277;28;20041;-75
2022/08/08 03:55:11;;;;;;;0.35;0.35;;;14.00;99.90;;;;;;5049237;28;20088;-79
2022/08/08 03:57:37;;;;;;;0.20;0.20;;;14.00;99.90;;;;;;5051900;28;20033;-76
2022/08/08 04:00:11;;;;;;;0.20;0.20;;;14.00;99.90;;;;;;5052232;28;20044;-75
2022/08/08 04:02:37;;;;;;;0.30;0.30;;;14.00;99.90;;;;;;5067848;28;20476;-76
2022/08/08 04:05:04;;;;;;;;;;;14.00;99.90;;;;;;5058764;28;20048;-77
2022/08/08 04:07:40;;;;;;;0.30;0.30;;;13.90;99.90;;;;;;5066531;28;19920;-77
2022/08/08 04:10:07;;;;;;;0.30;0.30;;;13.90;99.90;;;;;;5043567;28;20045;-80
2022/08/08 04:12:33;;;;;;;0.20;0.20;;;14.00;99.90;;;;;;5032492;28;20048;-80
2022/08/08 04:15:00;;;;;;;0.40;0.40;;;13.90;99.90;;;;;;5035249;28;20041;-77
2022/08/08 04:17:26;;;;;;;0.38;0.38;;;14.10;99.90;;;;;;5052443;28;20037;-78
2022/08/08 04:19:51;;;;;;;0.40;0.40;;;13.90;99.90;;;;;;5034632;28;20669;-76
2022/08/08 04:22:18;;;;;;;0.30;0.30;;;14.00;99.90;;;;;;5052108;28;20041;-80
2022/08/08 04:24:44;;;;;;;2.15;2.05;;;14.00;99.90;;;;;;5060337;28;20051;-76
2022/08/08 04:27:10;;;;;;;0.65;0.65;;;14.20;99.90;;;;;;5051047;28;20491;-76
2022/08/08 04:29:35;;;;;;;0.80;0.80;;;14.40;99.90;;;;;;5061572;28;20066;-76
2022/08/08 04:32:01;;;;;;;0.40;0.40;;;14.30;99.90;;;;;;5036393;28;20132;-77
2022/08/08 04:34:27;;;;;;;;;;;14.20;99.90;;;;;;5058018;28;20091;-77
2022/08/08 04:36:52;;;;;;;0.40;0.40;;;14.30;99.90;;;;;;5053463;28;20278;-81
2022/08/08 04:39:18;;;;;;;0.30;0.30;;;14.40;99.90;;;;;;5034547;28;20098;-78
2022/08/08 04:41:44;;;;;;;0.45;0.45;;;14.30;99.90;;;;;;5053296;28;20089;-77
2022/08/08 04:44:09;;;;;;;0.63;0.63;;;14.30;99.90;;;;;;5036022;28;20119;-79
2022/08/08 04:46:35;;;;;;;;;;;14.50;99.90;;;;;;5038937;28;20041;-79
2022/08/08 04:49:01;;;;;;;0.30;0.30;;;14.50;99.90;;;;;;5050748;28;19917;-79
2022/08/08 04:51:26;;;;;;;0.30;0.30;;;14.30;99.90;;;;;;5050897;28;20045;-79
2022/08/08 04:53:52;;;;;;;0.25;0.25;;;14.50;99.90;;;;;;5062084;28;20051;-77
2022/08/08 04:56:17;;;;;;;;;;;14.40;99.90;;;;;;5061070;28;20048;-78
2022/08/08 04:58:43;;;;;;;0.55;0.55;;;14.60;99.90;;;;;;5053751;28;20050;-75
2022/08/08 05:01:09;;;;;;;0.50;0.50;;;14.40;99.90;;;;;;5067994;28;20048;-78
2022/08/08 05:03:35;;;;;;;0.63;0.63;;;14.50;99.90;;;;;;5067352;28;20045;-75
2022/08/08 05:06:01;;;;;;;0.40;0.40;;;14.50;99.90;;;;;;5064940;28;20040;-77
2022/08/08 05:08:27;;;;;;;2.00;0.82;;;14.50;99.90;;;;;;5050740;28;20609;-80
2022/08/08 05:10:52;;;;;;;;;;;14.50;99.90;;;;;;5051128;28;20135;-79
2022/08/08 05:13:18;;;;;;;0.40;0.40;;;14.70;99.90;;;;;;5050761;28;20004;-77
2022/08/08 05:15:44;;;;;;;0.40;0.40;;;14.70;99.90;;;;;;5058783;28;20103;-78
2022/08/08 05:18:09;;;;;;;;;;;14.70;99.90;;;;;;5051330;28;20497;-77
2022/08/08 05:20:35;;;;;;;0.50;0.50;;;14.90;99.90;;;;;;5052061;28;19924;-77
2022/08/08 05:23:01;;;;;;;0.30;0.30;;;15.00;99.90;;;;;;5055882;28;20124;-76
2022/08/08 05:25:27;;;;;;;0.70;0.70;;;15.00;99.90;;;;;;5054988;28;20041;-77
2022/08/08 05:27:52;;;;;;;;;;;15.00;99.90;;;;;;5037023;28;20045;-74
2022/08/08 05:30:19;;;;;;;0.20;0.20;;;15.10;99.90;;;;;;5068765;28;20010;-77
2022/08/08 05:32:44;;;;;;;0.43;0.43;;;15.20;99.90;;;;;;5053950;28;20048;-80
2022/08/08 05:35:12;;;;;;;;;;;15.30;99.90;;;;;;5049984;28;20052;-80
2022/08/08 05:37:38;;;;;;;0.30;0.30;;;15.30;99.90;;;;;;5050349;28;19979;-77
2022/08/08 05:40:05;;;;;;;0.38;0.38;;;15.30;99.90;;;;;;5050767;28;20049;-78
2022/08/08 05:42:41;;;;;;;0.50;0.50;;;;;;;;;;5051126;28;20095;-77
2022/08/08 05:45:07;;;;;;;0.32;0.32;;;;;;;;;;5055877;28;20044;-79
2022/08/08 05:47:34;;;;;;;0.30;0.30;;;;;;;;;;5052721;28;20123;-77
2022/08/08 05:50:01;;;;;;;0.57;0.57;;;;;;;;;;5053567;28;20052;-78
2022/08/08 05:52:28;;;;;;;0.20;0.20;;;;;;;;;;5045200;28;20047;-76
2022/08/08 05:54:54;;;;;;;0.60;0.60;;;;;;;;;;5051228;28;20134;-79
2022/08/08 05:57:22;;;;;;;0.60;0.60;;;;;;;;;;5036090;28;20040;-77
2022/08/08 05:59:48;;;;;;;0.30;0.30;;;;;;;;;;5054588;28;20080;-81
2022/08/08 06:05:14;;;;;;;0.50;0.50;;;;;;;;;;5055246;28;20052;-75
2022/08/08 06:07:41;;;;;;;0.38;0.38;;;;;;;;;;5064388;28;20052;-78
2022/08/08 06:10:10;;;;;;;0.40;0.40;;;;;;;;;;5049920;28;20052;-77
2022/08/08 06:12:37;;;;;;;0.35;0.35;;;;;;;;;;5033424;28;20049;-78
2022/08/08 06:15:05;;;;;;;0.68;0.68;;;;;;;;;;5060042;28;20040;-78
2022/08/08 06:17:32;;;;;;;0.43;0.43;;;;;;;;;;5049887;28;20479;-75
2022/08/08 06:20:00;;;;;;;0.40;0.40;;;;;;;;;;5059178;28;20500;-79
2022/08/08 06:22:26;;;;;;;1.00;0.90;;;;;;;;;;5046196;28;20099;-77
2022/08/08 06:24:52;;;;;;;;;;;;;;;;;;5049973;28;20045;-77
2022/08/08 06:27:19;;;;;;;0.30;0.30;;;;;;;;;;5033407;28;19928;-75
2022/08/08 06:29:48;;;;;;;0.25;0.25;;;;;;;;;;5053732;28;20053;-79
2022/08/08 06:32:15;;;;;;;0.20;0.20;;;;;;;;;;5047449;28;20063;-77
2022/08/08 06:34:47;;;;;;;0.30;0.30;;;;;;;;;;5049716;28;20080;-77
2022/08/08 06:37:14;;;;;;;0.65;0.52;;;;;;;;;;5054142;28;20044;-79
2022/08/08 06:39:44;;;;;;;0.30;0.30;;;;;;;;;;5058360;28;20060;-76
2022/08/08 06:42:12;;;;;;;0.38;0.38;;;;;;;;;;5049085;28;20123;-78
2022/08/08 06:44:40;;;;;;;0.30;0.30;;;;;;;;;;5056323;28;20498;-78
2022/08/08 06:47:06;;;;;;;0.57;0.57;;;;;;;;;;5049821;28;20053;-81
2022/08/08 06:49:32;;;;;;;0.30;0.30;;;;;;;;;;5041006;28;20051;-77
2022/08/08 06:51:59;;;;;;;0.20;0.20;;;;;;;;;;5054904;28;20132;-81
2022/08/08 06:54:25;;;;;;;0.20;0.20;;;;;;;;;;5066763;28;20132;-77
2022/08/08 06:56:51;;;;;;;0.30;0.30;;;;;;;;;;5045177;28;20081;-75
2022/08/08 06:59:19;;;;;;;0.30;0.30;;;;;;;;;;5046887;28;20167;-77
2022/08/08 07:01:50;;;;;;;0.85;0.75;;;;;;;;;;5053964;28;20496;-77
2022/08/08 07:04:25;;;;;;;0.47;0.47;;;;;;;;;;5054318;28;20048;-74
2022/08/08 07:06:55;;;;;;;0.30;0.30;;;;;;;;;;5071246;28;20044;-80
2022/08/08 07:09:27;;;;;;;0.55;0.50;;;;;;;;;;5047535;28;20040;-78
2022/08/08 07:11:54;;;;;;;0.47;0.47;;;;;;;;;;5061861;28;20123;-80
2022/08/08 07:14:26;;;;;;;0.20;0.20;;;;;;;;;;5054557;28;20519;-81
2022/08/08 07:17:01;;;;;;;0.30;0.30;;;;;;;;;;5068060;28;20056;-74
2022/08/08 07:19:41;;;;;;;0.28;0.28;;;;;;;;;;5057813;28;20048;-77
2022/08/08 07:22:08;;;;;;;0.20;0.20;;;;;;;;;;5058442;28;20040;-78
2022/08/08 07:24:40;;;;;;;0.60;0.60;;;;;;;;;;5053466;28;20174;-79
2022/08/08 07:27:10;;;;;;;0.30;0.28;;;;;;;;;;5066131;28;20044;-80
2022/08/08 07:29:37;;;;;;;0.28;0.28;;;;;;;;;;5054443;28;20060;-76
2022/08/08 07:32:03;;;;;;;0.32;0.32;;;;;;;;;;5037214;28;20111;-79
2022/08/08 07:34:30;;;;;;;0.40;0.40;;;;;;;;;;5043815;28;20056;-74
2022/08/08 07:36:57;;;;;;;0.50;0.45;;;;;;;;;;5037108;28;20463;-77
2022/08/08 07:39:23;;;;;;;0.20;0.20;;;;;;;;;;5055287;28;20095;-78
2022/08/08 07:41:50;;;;;;;0.20;0.20;;;;;;;;;;5053591;28;20095;-78
2022/08/08 07:44:18;;;;;;;0.30;0.30;;;;;;;;;;5046467;28;20048;-77
2022/08/08 07:46:44;;;;;;;0.20;0.20;;;;;;;;;;5055709;28;20116;-74
2022/08/08 07:49:12;;;;;;;0.40;0.40;;;;;;;;;;5055076;28;20033;-79
2022/08/08 07:51:38;;;;;;;0.32;0.32;;;;;;;;;;5052924;28;20049;-76
2022/08/08 07:54:05;;;;;;;0.30;0.30;;;;;;;;;;5042859;28;20044;-77
2022/08/08 07:56:34;;;;;;;0.20;0.20;;;;;;;;;;5054470;28;20044;-78
2022/08/08 07:59:00;;;;;;;0.32;0.32;;;;;;;;;;5052930;28;20120;-80
2022/08/08 08:01:28;;;;;;;0.40;0.40;;;;;;;;;;5052733;28;20041;-76
2022/08/08 08:03:57;;;;;;;0.20;0.20;;;;;;;;;;5052434;28;20037;-75
2022/08/08 08:06:25;;;;;;;0.45;0.45;;;;;;;;;;5052609;28;20491;-77
2022/08/08 08:09:00;;;;;;;0.20;0.20;;;;;;;;;;5069382;28;20101;-77
2022/08/08 08:11:28;;;;;;;0.35;0.35;;;;;;;;;;5056414;28;20060;-79
2022/08/08 08:14:15;;;;;;;0.20;0.20;;;;;;;;;;5065698;28;20080;-76
2022/08/08 08:16:42;;;;;;;0.50;0.50;;;;;;;;;;5036000;28;20100;-79
2022/08/08 08:19:12;;;;;;;0.30;0.30;;;;;;;;;;5060529;28;20040;-80
2022/08/08 08:21:38;;;;;;;0.20;0.20;;;;;;;;;;5056244;28;20098;-77
2022/08/08 08:24:04;;;;;;;0.20;0.20;;;;;;;;;;5056692;28;20044;-76
2022/08/08 08:26:30;;;;;;;0.38;0.38;;;;;;;;;;5040051;28;20379;-76
2022/08/08 08:28:56;;;;;;;0.30;0.30;;;;;;;;;;5059812;28;20513;-79
2022/08/08 08:31:22;;;;;;;0.75;0.73;;;;;;;;;;5056909;28;20549;-79
2022/08/08 08:33:48;;;;;;;0.40;0.40;;;;;;;;;;5053541;28;20438;-76
2022/08/08 08:36:15;;;;;;;0.30;0.30;;;;;;;;;;5054285;28;20044;-76
2022/08/08 08:38:42;;;;;;;0.43;0.30;;;;;;;;;;5052499;28;20056;-80
2022/08/08 08:41:10;;;;;;;0.20;0.20;;;;;;;;;;5052716;28;20537;-77
2022/08/08 08:43:37;;;;;;;0.30;0.30;;;;;;;;;;5043665;28;20045;-79
2022/08/08 08:46:06;;;;;;;0.40;0.40;;;;;;;;;;5057217;28;20047;-75
2022/08/08 08:48:33;;;;;;;0.40;0.40;;;;;;;;;;5049408;28;20044;-74
2022/08/08 08:51:00;;;;;;;0.17;0.17;;;;;;;;;;5051891;28;20055;-77
2022/08/08 08:53:26;;;;;;;0.20;0.20;;;;;;;;;;5058717;28;20056;-79
2022/08/08 08:55:54;;;;;;;0.30;0.30;;;;;;;;;;5052022;28;20051;-77
2022/08/08 08:58:26;;;;;;;0.20;0.20;;;;;;;;;;5054199;28;20521;-77
2022/08/08 09:00:53;;;;;;;0.30;0.30;;;;;;;;;;5060349;28;20091;-76
2022/08/08 09:03:20;;;;;;;0.30;0.30;;;;;;;;;;5053571;28;20044;-76
2022/08/08 09:05:47;;;;;;;0.20;0.20;;;;;;;;;;5056769;28;20052;-78
2022/08/08 09:08:15;;;;;;;0.22;0.22;;;;;;;;;;5048489;28;20534;-77
2022/08/08 09:10:41;;;;;;;0.22;0.22;;;;;;;;;;5046802;28;20371;-77
2022/08/08 09:13:08;;;;;;;0.30;0.30;;;;;;;;;;5051270;28;20045;-77
2022/08/08 09:15:35;;;;;;;0.30;0.30;;;;;;;;;;5051294;28;20099;-78
2022/08/08 09:18:02;;;;;;;0.20;0.20;;;;;;;;;;5051134;28;20045;-76
2022/08/08 09:20:29;;;;;;;0.30;0.30;;;;;;;;;;5055412;28;20490;-80
2022/08/08 09:22:55;;;;;;;0.30;0.30;;;;;;;;;;5052757;28;20049;-77
2022/08/08 09:25:22;;;;;;;0.22;0.22;;;;;;;;;;5035565;28;20053;-76
2022/08/08 09:27:48;;;;;;;0.10;0.10;;;;;;;;;;5049806;28;20045;-76
2022/08/08 09:30:15;;;;;;;0.15;0.15;;;;;;;;;;5050151;28;20060;-74
2022/08/08 09:32:42;;;;;;;0.20;0.20;;;;;;;;;;5051185;28;20376;-74
2022/08/08 09:35:09;;;;;;;0.22;0.22;;;;;;;;;;5051001;28;20045;-74
2022/08/08 09:37:43;;;;;;;0.35;0.35;;;;;;;;;;5038054;28;20120;-80
2022/08/08 09:40:10;;;;;;;0.65;0.65;;;;;;;;;;5036641;28;20052;-79
2022/08/08 09:42:37;;;;;;;0.38;0.38;;;;;;;;;;5052292;28;20037;-78
2022/08/08 09:45:03;;;;;;;0.30;0.30;;;;;;;;;;5054432;28;20052;-76
2022/08/08 09:47:31;;;;;;;0.30;0.30;;;;;;;;;;5051166;28;20048;-77
2022/08/08 09:49:58;;;;;;;0.30;0.30;;;;;;;;;;5050695;28;20128;-75
2022/08/08 09:52:28;;;;;;;0.35;0.35;;;;;;;;;;5040252;28;20502;-77
2022/08/08 09:54:54;;;;;;;0.17;0.17;;;;;;;;;;5054359;28;20053;-76
2022/08/08 09:57:34;;;;;;;0.25;0.25;;;;;;;;;;5055120;28;20487;-78
2022/08/08 10:00:01;;;;;;;0.70;0.70;;;;;;;;;;5052981;28;20068;-75
2022/08/08 10:02:37;;;;;;;0.30;0.30;;;;;;;;;;5057469;28;20494;-76
2022/08/08 10:05:15;;;;;;;0.35;0.35;;;;;;;;;;5047182;28;20127;-75
2022/08/08 10:07:45;;;;;;;0.32;0.32;;;;;;;;;;5052172;28;20053;-76
2022/08/08 10:10:12;;;;;;;0.20;0.20;;;;;;;;;;5040395;28;20119;-76
2022/08/08 10:12:38;;;;;;;0.25;0.25;;;;;;;;;;5051241;28;20045;-75
2022/08/08 10:15:06;;;;;;;0.20;0.20;;;;;;;;;;5033864;28;20076;-74
2022/08/08 10:17:43;;;;;;;0.20;0.20;;;;;;;;;;5050213;28;20056;-78
2022/08/08 10:20:10;;;;;;;0.30;0.30;;;;;;;;;;5039314;28;20041;-77
2022/08/08 10:22:41;;;;;;;0.17;0.17;;;;;;;;;;5054878;28;20043;-78
2022/08/08 10:25:07;;;;;;;0.17;0.17;;;;;;;;;;5050336;28;20475;-78
2022/08/08 10:27:41;;;;;;;0.57;0.43;;;;;;;;;;5050122;28;20482;-74
2022/08/08 10:30:09;;;;;;;0.22;0.22;;;;;;;;;;5055550;28;20057;-78
2022/08/08 10:32:41;;;;;;;0.20;0.20;;;;;;;;;;5049378;28;20037;-78
2022/08/08 10:35:15;;;;;;;0.10;0.10;;;;;;;;;;5054517;28;20073;-75
2022/08/08 10:37:49;;;;;;;0.20;0.20;;;;;;;;;;5055039;28;20040;-78
2022/08/08 10:40:16;;;;;;;0.20;0.20;;;;;;;;;;5057296;28;20048;-75
2022/08/08 10:42:42;;;;;;;0.32;0.32;;;;;;;;;;5057145;28;20063;-74
2022/08/08 10:45:09;;;;;;;0.13;0.13;;;;;;;;;;5045912;28;20747;-76
2022/08/08 10:47:36;;;;;;;0.20;0.20;;;;;;;;;;5054793;28;20095;-76
2022/08/08 10:50:03;;;;;;;0.20;0.20;;;;;;;;;;5062102;28;20048;-74
2022/08/08 10:52:40;;;;;;;0.30;0.30;;;;;;;;;;5050735;28;20037;-76
2022/08/08 10:55:14;;;;;;;0.35;0.35;;;;;;;;;;5043056;28;20045;-82
2022/08/08 10:57:41;;;;;;;0.30;0.30;;;;;;;;;;5044669;28;20170;-78
2022/08/08 11:00:09;;;;;;;0.28;0.28;;;;;;;;;;5061572;28;20502;-77
2022/08/08 11:02:35;;;;;;;0.75;0.75;;;;;;;;;;5058476;28;20063;-77
2022/08/08 11:05:04;;;;;;;0.30;0.30;;;;;;;;;;5054999;28;20043;-78
2022/08/08 11:07:31;;;;;;;0.20;0.20;;;;;;;;;;5044184;28;20045;-77
2022/08/08 11:10:04;;;;;;;0.20;0.20;;;;;;;;;;5051770;28;20127;-76
2022/08/08 11:12:31;;;;;;;0.32;0.32;;;;;;;;;;5037722;28;20076;-77
2022/08/08 11:15:01;;;;;;;0.20;0.20;;;;;;;;;;5037394;28;20095;-77
2022/08/08 11:17:30;;;;;;;0.63;0.63;;;;;;;;;;5061503;28;20040;-79
2022/08/08 11:19:57;;;;;;;0.52;0.50;;;;;;;;;;5063407;28;20037;-77
2022/08/08 11:22:25;;;;;;;0.20;0.20;;;;;;;;;;5053549;28;20037;-78
2022/08/08 11:24:53;;;;;;;0.28;0.28;;;;;;;;;;5054894;28;20386;-76
2022/08/08 11:27:23;;;;;;;0.20;0.20;;;;;;;;;;5053771;28;20049;-77
2022/08/08 11:29:50;;;;;;;0.47;0.47;;;;;;;;;;5041765;28;20128;-82
2022/08/08 11:32:17;;;;;;;0.60;0.60;;;;;;;;;;5053836;28;20052;-77
2022/08/08 11:34:45;;;;;;;0.40;0.40;;;;;;;;;;5051392;28;20049;-76
2022/08/08 11:37:11;;;;;;;0.17;0.17;;;;;;;;;;5050602;28;20083;-75
2022/08/08 11:39:37;;;;;;;0.20;0.20;;;;;;;;;;5055141;28;20483;-77
2022/08/08 11:42:04;;;;;;;0.20;0.20;;;;;;;;;;5055261;28;20040;-79
2022/08/08 11:44:31;;;;;;;0.13;0.13;;;;;;;;;;5045114;28;20041;-79
2022/08/08 11:46:57;;;;;;;0.20;0.20;;;;;;;;;;5055831;28;20044;-75
2022/08/08 11:49:24;;;;;;;0.32;0.30;;;;;;;;;;5060586;28;20041;-78
2022/08/08 11:51:52;;;;;;;0.20;0.20;;;;;;;;;;5053558;28;20455;-79
2022/08/08 11:54:28;;;;;;;0.17;0.17;;;;;;;;;;5054076;28;20052;-76
2022/08/08 11:56:54;;;;;;;0.25;0.25;;;;;;;;;;5053819;28;20033;-73
2022/08/08 11:59:31;;;;;;;0.10;0.10;;;;;;;;;;5053499;28;20049;-75
2022/08/08 12:02:06;;;;;;;0.38;0.35;;;;;;;;;;5050190;28;20045;-76
2022/08/08 12:04:36;;;;;;;0.25;0.25;;;;;;;;;;5052180;28;20044;-75
2022/08/08 12:07:03;;;;;;;0.20;0.20;;;;;;;;;;5060101;28;20055;-78
2022/08/08 12:09:29;;;;;;;0.10;0.10;;;;;;;;;;5044592;28;20052;-74
2022/08/08 12:11:56;;;;;;;0.20;0.20;;;;;;;;;;5066488;28;20110;-75
2022/08/08 12:14:22;;;;;;;0.10;0.10;;;;;;;;;;5052017;28;20051;-75
2022/08/08 12:16:51;;;;;;;0.32;0.32;;;;;;;;;;5035422;28;20041;-73
2022/08/08 12:19:17;;;;;;;0.30;0.30;;;;;;;;;;5056235;28;20115;-78
2022/08/08 12:21:43;;;;;;;0.40;0.40;;;;;;;;;;5051158;28;20037;-76
2022/08/08 12:24:11;;;;;;;0.30;0.30;;;;;;;;;;5044345;28;20040;-74
2022/08/08 12:26:48;;;;;;;0.77;0.77;;;;;;;;;;5052992;28;20406;-77
2022/08/08 12:29:20;;;;;;;0.25;0.25;;;;;;;;;;5053309;28;20468;-76
2022/08/08 12:31:47;;;;;;;0.30;0.30;;;;;;;;;;5016684;28;1105135;-78
2022/08/08 12:34:13;;;;;;;0.22;0.22;;;;;;;;;;5068179;28;20051;-77
2022/08/08 12:36:40;;;;;;;0.20;0.20;;;;;;;;;;5053167;28;20063;-76
2022/08/08 12:39:07;;;;;;;0.20;0.20;;;;;;;;;;5054155;28;20037;-78
2022/08/08 12:41:35;;;;;;;0.20;0.20;;;;;;;;;;5038768;28;20091;-78
2022/08/08 12:44:13;;;;;;;0.30;0.30;;;;;;;;;;5042510;28;20077;-79
2022/08/08 12:46:39;;;;;;;0.10;0.10;;;;;;;;;;5031748;28;20079;-76
2022/08/08 12:49:06;;;;;;;0.32;0.32;;;;;;;;;;5057525;28;20044;-79
2022/08/08 12:51:39;;;;;;;0.15;0.15;;;;;;;;;;5057698;28;20044;-81
2022/08/08 12:54:06;;;;;;;0.20;0.20;;;;;;;;;;5047830;28;20073;-79
2022/08/08 12:56:32;;;;;;;0.20;0.20;;;;;;;;;;5052892;28;20123;-78
2022/08/08 12:58:59;;;;;;;0.20;0.20;;;;;;;;;;5067173;28;20037;-76
2022/08/08 13:01:36;;;;;;;1.30;0.68;;;;;;;;;;5053693;28;20052;-79
2022/08/08 13:04:13;;;;;;;0.20;0.20;;;;;;;;;;5068854;28;20044;-77
2022/08/08 13:06:39;;;;;;;0.20;0.20;;;;;;;;;;5039173;28;20036;-78
2022/08/08 13:09:08;;;;;;;0.20;0.20;;;;;;;;;;5059720;28;20449;-76
2022/08/08 13:11:38;;;;;;;0.22;0.22;;;;;;;;;;5054830;28;20036;-77
2022/08/08 13:14:14;;;;;;;0.25;0.25;;;;;;;;;;5035531;28;20495;-76
2022/08/08 13:16:40;;;;;;;1.55;1.33;;;;;;;;;;5051177;28;20053;-76
2022/08/08 13:19:07;;;;;;;0.20;0.20;;;;;;;;;;5051746;28;20478;-78
2022/08/08 13:21:44;;;;;;;0.30;0.30;;;;;;;;;;5048946;28;20036;-80
2022/08/08 13:24:10;;;;;;;0.20;0.20;;;;;;;;;;5047763;28;20098;-80
2022/08/08 13:26:36;;;;;;;0.15;0.15;;;;;;;;;;5051856;28;20040;-79
2022/08/08 13:29:10;;;;;;;0.30;0.30;;;;;;;;;;5056994;28;20057;-79
2022/08/08 13:31:36;;;;;;;0.20;0.20;;;;;;;;;;5034492;28;20053;-79
2022/08/08 13:34:02;;;;;;;0.10;0.10;;;;;;;;;;5054186;28;20072;-75
2022/08/08 13:36:29;;;;;;;0.13;0.13;;;;;;;;;;5051174;28;20064;-78
2022/08/08 13:38:55;;;;;;;0.20;0.20;;;;;;;;;;5051096;28;20047;-77
2022/08/08 13:41:21;;;;;;;0.20;0.20;;;;;;;;;;5052287;28;20051;-78
2022/08/08 13:43:47;;;;;;;0.30;0.30;;;;;;;;;;5059607;28;20439;-79
2022/08/08 13:46:15;;;;;;;0.10;0.10;;;;;;;;;;5057293;28;20053;-75
2022/08/08 13:48:49;;;;;;;0.20;0.20;;;;;;;;;;5050661;28;20053;-77
2022/08/08 13:51:17;;;;;;;0.20;0.20;;;;;;;;;;5051288;28;20044;-78
2022/08/08 13:53:51;;;;;;;0.10;0.10;;;;;;;;;;5052684;28;20049;-77
2022/08/08 13:56:27;;;;;;;0.25;0.25;;;;;;;;;;5050402;28;20044;-76
2022/08/08 13:58:53;;;;;;;0.10;0.10;;;;;;;;;;5062873;28;20037;-76
2022/08/08 14:01:19;;;;;;;0.10;0.10;;;;;;;;;;5061164;28;20401;-76
2022/08/08 14:03:53;;;;;;;0.20;0.20;;;;;;;;;;5060196;28;20090;-74
2022/08/08 14:06:19;;;;;;;0.10;0.10;;;;;;;;;;5052170;28;20084;-82
2022/08/08 14:08:45;;;;;;;0.10;0.10;;;;;;;;;;5052873;28;20045;-79
2022/08/08 14:11:12;;;;;;;0.20;0.20;;;;;;;;;;5052364;28;20036;-78
2022/08/08 14:13:39;;;;;;;0.20;0.20;;;;;;;;;;5057092;28;20048;-79
2022/08/08 14:16:05;;;;;;;0.10;0.10;;;;;;;;;;5049754;28;20045;-77
2022/08/08 14:18:32;;;;;;;1.10;1.10;;;;;;;;;;5051183;28;20041;-79
2022/08/08 14:21:05;;;;;;;0.45;0.32;;;;;;;;;;5031593;28;20040;-73
2022/08/08 14:23:45;;;;;;;0.20;0.20;;;;;;;;;;5050855;28;20048;-77
2022/08/08 14:26:20;;;;;;;0.20;0.20;;;;;;;;;;5053015;28;20040;-77
2022/08/08 14:28:50;;;;;;;0.30;0.30;;;;;;;;;;5050545;28;20045;-78
2022/08/08 14:31:18;;;;;;;0.20;0.20;;;;;;;;;;5041196;28;20067;-80
2022/08/08 14:33:49;;;;;;;0.20;0.20;;;;;;;;;;5050557;28;20037;-76